createdAt,value
2022-07-31T00:00:45.853Z,20.70
2022-07-31T00:03:14.068Z,20.60
2022-07-31T00:05:42.612Z,20.60
2022-07-31T00:08:12.311Z,20.60
2022-07-31T00:10:40.404Z,20.60
2022-07-31T00:13:08.533Z,20.60
2022-07-31T00:15:38.995Z,20.60
2022-07-31T00:18:08.767Z,20.60
2022-07-31T00:20:37.040Z,20.60
2022-07-31T00:23:05.227Z,20.60
2022-07-31T00:25:34.927Z,20.50
2022-07-31T00:28:03.229Z,20.50
2022-07-31T00:30:31.934Z,20.40
2022-07-31T00:33:00.016Z,20.40
2022-07-31T00:35:28.091Z,20.40
2022-07-31T00:38:24.802Z,20.40
2022-07-31T00:40:50.245Z,20.40
2022-07-31T00:43:19.431Z,20.40
2022-07-31T00:45:58.577Z,20.30
2022-07-31T00:48:28.013Z,20.40
2022-07-31T00:50:56.365Z,20.30
2022-07-31T00:53:24.591Z,20.30
2022-07-31T00:55:57.582Z,20.30
2022-07-31T00:58:26.165Z,20.30
2022-07-31T01:00:54.379Z,20.20
2022-07-31T01:03:22.497Z,20.20
2022-07-31T01:05:50.618Z,20.20
2022-07-31T01:08:18.712Z,20.20
2022-07-31T01:10:53.529Z,20.20
2022-07-31T01:13:31.099Z,20.30
2022-07-31T01:16:02.356Z,20.30
2022-07-31T01:18:35.845Z,20.20
2022-07-31T01:21:08.638Z,20.20
2022-07-31T01:24:08.574Z,20.20
2022-07-31T01:26:46.675Z,20.20
2022-07-31T01:29:25.547Z,20.20
2022-07-31T01:31:59.738Z,20.20
2022-07-31T01:34:35.173Z,20.20
2022-07-31T01:37:10.493Z,20.10
2022-07-31T01:39:43.350Z,20.10
2022-07-31T01:42:13.019Z,20.00
2022-07-31T01:44:45.953Z,20.00
2022-07-31T01:47:18.017Z,20.00
2022-07-31T01:49:47.352Z,20.00
2022-07-31T01:52:16.320Z,20.00
2022-07-31T01:54:46.394Z,20.00
2022-07-31T01:57:17.341Z,20.00
2022-07-31T01:59:50.017Z,20.00
2022-07-31T02:02:23.937Z,20.10
2022-07-31T02:04:52.537Z,20.00
2022-07-31T02:07:22.362Z,19.90
2022-07-31T02:09:58.812Z,19.90
2022-07-31T02:12:33.177Z,19.90
2022-07-31T02:15:05.566Z,19.80
2022-07-31T02:17:34.996Z,19.90
2022-07-31T02:20:05.595Z,19.90
2022-07-31T02:22:34.728Z,19.80
2022-07-31T02:25:03.054Z,19.80
2022-07-31T02:27:57.131Z,19.80
2022-07-31T02:30:22.300Z,19.80
2022-07-31T02:32:50.928Z,19.80
2022-07-31T02:35:19.951Z,19.80
2022-07-31T02:37:51.999Z,19.80
2022-07-31T02:40:21.605Z,19.80
2022-07-31T02:42:50.753Z,19.80
2022-07-31T02:45:22.543Z,19.80
2022-07-31T02:47:50.794Z,19.90
2022-07-31T02:50:20.402Z,19.90
2022-07-31T02:52:49.142Z,19.90
2022-07-31T02:55:18.498Z,19.80
2022-07-31T02:57:48.199Z,19.80
2022-07-31T03:00:22.963Z,19.80
2022-07-31T03:02:55.205Z,19.80
2022-07-31T03:05:23.734Z,19.80
2022-07-31T03:07:51.948Z,19.80
2022-07-31T03:10:20.060Z,19.80
2022-07-31T03:12:53.927Z,19.80
2022-07-31T03:15:25.182Z,19.80
2022-07-31T03:17:55.728Z,19.80
2022-07-31T03:20:24.805Z,19.80
2022-07-31T03:22:52.930Z,19.70
2022-07-31T03:25:22.096Z,19.80
2022-07-31T03:27:55.817Z,19.80
2022-07-31T03:30:26.148Z,19.80
2022-07-31T03:32:56.459Z,19.70
2022-07-31T03:35:25.407Z,19.70
2022-07-31T03:37:53.892Z,19.70
2022-07-31T03:40:22.265Z,19.70
2022-07-31T03:42:50.983Z,19.70
2022-07-31T03:45:20.459Z,19.70
2022-07-31T03:47:48.889Z,19.70
2022-07-31T03:50:18.648Z,19.70
2022-07-31T03:52:48.129Z,19.70
2022-07-31T03:55:16.580Z,19.60
2022-07-31T03:57:45.840Z,19.70
2022-07-31T04:00:18.117Z,19.70
2022-07-31T04:02:47.122Z,19.70
2022-07-31T04:05:15.437Z,19.70
2022-07-31T04:07:44.838Z,19.60
2022-07-31T04:10:12.978Z,19.60
2022-07-31T04:12:41.078Z,19.50
2022-07-31T04:15:09.705Z,19.60
2022-07-31T04:17:37.812Z,19.50
2022-07-31T04:20:07.195Z,19.50
2022-07-31T04:22:35.499Z,19.60
2022-07-31T04:25:05.736Z,19.60
2022-07-31T04:27:33.788Z,19.60
2022-07-31T04:30:03.063Z,19.60
2022-07-31T04:32:31.196Z,19.60
2022-07-31T04:34:59.485Z,19.60
2022-07-31T04:37:27.544Z,19.60
2022-07-31T04:39:55.778Z,19.60
2022-07-31T04:42:25.170Z,19.60
2022-07-31T04:44:54.138Z,19.50
2022-07-31T04:47:22.286Z,19.50
2022-07-31T04:49:50.295Z,19.50
2022-07-31T04:52:18.337Z,19.50
2022-07-31T04:54:46.401Z,19.50
2022-07-31T04:57:17.426Z,19.50
2022-07-31T04:59:59.093Z,19.50
2022-07-31T05:02:29.153Z,19.50
2022-07-31T05:04:57.550Z,19.50
2022-07-31T05:07:28.629Z,19.50
2022-07-31T05:09:57.344Z,19.50
2022-07-31T05:12:26.092Z,19.50
2022-07-31T05:14:55.542Z,19.50
2022-07-31T05:17:23.618Z,19.60
2022-07-31T05:19:51.692Z,19.60
2022-07-31T05:22:19.768Z,19.60
2022-07-31T05:24:47.797Z,19.60
2022-07-31T05:27:15.976Z,19.50
2022-07-31T05:29:44.227Z,19.50
2022-07-31T05:32:13.937Z,19.50
2022-07-31T05:34:42.152Z,19.50
2022-07-31T05:37:10.223Z,19.50
2022-07-31T05:39:38.269Z,19.40
2022-07-31T05:42:07.850Z,19.50
2022-07-31T05:44:35.913Z,19.50
2022-07-31T05:47:07.660Z,19.50
2022-07-31T05:49:37.130Z,19.60
2022-07-31T05:52:06.136Z,19.60
2022-07-31T05:54:34.544Z,19.70
2022-07-31T05:57:02.621Z,19.80
2022-07-31T05:59:32.352Z,19.90
2022-07-31T06:02:00.541Z,19.90
2022-07-31T06:04:31.196Z,20.00
2022-07-31T06:07:00.619Z,20.00
2022-07-31T06:09:30.379Z,20.00
2022-07-31T06:11:58.421Z,20.10
2022-07-31T06:14:26.443Z,20.10
2022-07-31T06:16:54.491Z,20.10
2022-07-31T06:19:24.915Z,20.20
2022-07-31T06:21:53.902Z,20.10
2022-07-31T06:24:23.728Z,20.10
2022-07-31T06:26:53.088Z,20.10
2022-07-31T06:29:23.833Z,20.20
2022-07-31T06:32:10.609Z,20.10
2022-07-31T06:34:38.675Z,20.10
2022-07-31T06:37:06.750Z,20.30
2022-07-31T06:39:54.264Z,20.40
2022-07-31T06:42:23.973Z,20.60
2022-07-31T06:44:52.220Z,20.70
2022-07-31T06:47:22.034Z,20.90
2022-07-31T06:49:50.188Z,20.90
2022-07-31T06:52:18.492Z,21.10
2022-07-31T06:54:48.066Z,21.20
2022-07-31T06:57:16.525Z,21.30
2022-07-31T06:59:44.702Z,21.40
2022-07-31T07:02:12.760Z,21.50
2022-07-31T07:05:06.166Z,21.60
2022-07-31T07:07:31.795Z,21.80
2022-07-31T07:10:01.907Z,22.00
2022-07-31T07:12:30.036Z,21.90
2022-07-31T07:14:59.018Z,21.90
2022-07-31T07:17:29.217Z,21.80
2022-07-31T07:19:57.805Z,21.80
2022-07-31T07:22:31.683Z,21.80
2022-07-31T07:25:02.082Z,21.80
2022-07-31T07:27:30.267Z,21.90
2022-07-31T07:29:58.633Z,21.90
2022-07-31T07:32:26.677Z,21.90
2022-07-31T07:35:00.017Z,22.00
2022-07-31T07:37:29.812Z,22.20
2022-07-31T07:40:03.669Z,22.30
2022-07-31T07:42:33.999Z,22.40
2022-07-31T07:45:03.463Z,22.40
2022-07-31T07:47:53.822Z,22.40
2022-07-31T07:50:27.096Z,22.50
2022-07-31T07:52:58.063Z,22.50
2022-07-31T07:55:26.565Z,22.50
2022-07-31T07:57:56.456Z,22.40
2022-07-31T08:00:24.608Z,22.50
2022-07-31T08:03:47.597Z,22.50
2022-07-31T08:05:42.482Z,22.50
2022-07-31T08:08:10.571Z,22.50
2022-07-31T08:10:40.407Z,22.50
2022-07-31T08:13:09.973Z,22.60
2022-07-31T08:15:38.006Z,22.70
2022-07-31T08:18:06.290Z,22.80
2022-07-31T08:20:34.440Z,22.80
2022-07-31T08:23:02.506Z,22.80
2022-07-31T08:25:31.989Z,22.60
2022-07-31T08:28:00.359Z,22.50
2022-07-31T08:30:31.301Z,22.50
2022-07-31T08:32:59.722Z,22.40
2022-07-31T08:35:29.553Z,22.30
2022-07-31T08:38:03.834Z,22.30
2022-07-31T08:40:42.502Z,22.40
2022-07-31T08:44:00.543Z,22.50
2022-07-31T08:46:04.184Z,22.70
2022-07-31T08:48:34.166Z,22.80
2022-07-31T08:51:04.495Z,22.80
2022-07-31T08:53:37.070Z,22.70
2022-07-31T08:56:06.490Z,22.60
2022-07-31T08:58:39.593Z,22.60
2022-07-31T09:01:12.338Z,22.50
2022-07-31T09:03:40.760Z,22.50
2022-07-31T09:06:09.014Z,22.50
2022-07-31T09:08:38.470Z,22.50
2022-07-31T09:11:07.795Z,22.50
2022-07-31T09:13:36.116Z,22.60
2022-07-31T09:16:04.815Z,22.50
2022-07-31T09:18:35.189Z,22.50
2022-07-31T09:21:05.581Z,22.50
2022-07-31T09:23:33.755Z,22.50
2022-07-31T09:26:04.914Z,22.50
2022-07-31T09:28:34.861Z,22.50
2022-07-31T09:31:03.931Z,22.50
2022-07-31T09:33:33.616Z,22.50
2022-07-31T09:36:02.218Z,22.50
2022-07-31T09:38:35.470Z,22.50
2022-07-31T09:41:56.747Z,22.50
2022-07-31T09:44:00.994Z,22.50
2022-07-31T09:46:40.333Z,22.40
2022-07-31T09:49:10.060Z,22.40
2022-07-31T09:51:42.116Z,22.40
2022-07-31T09:54:21.844Z,22.40
2022-07-31T09:56:50.411Z,22.40
2022-07-31T09:59:18.592Z,22.50
2022-07-31T10:01:48.851Z,22.60
2022-07-31T10:04:20.192Z,22.70
2022-07-31T10:06:49.420Z,22.70
2022-07-31T10:09:20.470Z,22.80
2022-07-31T10:11:50.766Z,22.90
2022-07-31T10:14:23.346Z,22.90
2022-07-31T10:16:53.535Z,23.10
2022-07-31T10:19:24.718Z,23.10
2022-07-31T10:21:57.834Z,23.20
2022-07-31T10:24:28.654Z,23.20
2022-07-31T10:27:10.417Z,23.30
2022-07-31T10:29:39.776Z,23.50
2022-07-31T10:32:08.500Z,23.70
2022-07-31T10:34:38.900Z,24.10
2022-07-31T10:37:12.814Z,24.30
2022-07-31T10:39:50.078Z,24.20
2022-07-31T10:42:30.405Z,24.10
2022-07-31T10:45:06.588Z,24.30
2022-07-31T10:47:34.664Z,24.30
2022-07-31T10:50:05.079Z,24.20
2022-07-31T10:52:34.875Z,24.30
2022-07-31T10:55:03.288Z,24.40
2022-07-31T10:57:33.978Z,24.40
2022-07-31T11:00:11.995Z,24.60
2022-07-31T11:02:40.364Z,24.90
2022-07-31T11:05:14.650Z,24.90
2022-07-31T11:07:44.352Z,25.20
2022-07-31T11:10:18.370Z,25.40
2022-07-31T11:12:46.818Z,25.60
2022-07-31T11:15:25.844Z,25.80
2022-07-31T11:18:22.527Z,25.80
2022-07-31T11:20:46.922Z,25.60
2022-07-31T11:23:17.559Z,25.50
2022-07-31T11:25:47.140Z,25.40
2022-07-31T11:28:18.941Z,25.20
2022-07-31T11:30:51.624Z,25.20
2022-07-31T11:33:41.576Z,25.20
2022-07-31T11:36:14.725Z,25.00
2022-07-31T11:38:46.101Z,25.00
2022-07-31T11:41:15.492Z,24.90
2022-07-31T11:43:47.718Z,24.60
2022-07-31T11:46:20.523Z,24.50
2022-07-31T11:48:48.694Z,24.40
2022-07-31T11:51:20.361Z,24.60
2022-07-31T11:53:51.190Z,24.60
2022-07-31T11:56:27.767Z,24.70
2022-07-31T11:58:59.025Z,24.80
2022-07-31T12:01:29.046Z,24.90
2022-07-31T12:04:07.506Z,25.00
2022-07-31T12:06:39.267Z,25.20
2022-07-31T12:09:07.565Z,25.30
2022-07-31T12:11:56.057Z,25.30
2022-07-31T12:14:31.680Z,25.30
2022-07-31T12:17:02.240Z,25.30
2022-07-31T12:19:31.654Z,25.20
2022-07-31T12:22:16.188Z,25.20
2022-07-31T12:24:44.999Z,25.20
2022-07-31T12:27:16.887Z,25.30
2022-07-31T12:29:45.026Z,25.40
2022-07-31T12:32:15.171Z,25.30
2022-07-31T12:34:44.270Z,25.20
2022-07-31T12:37:15.533Z,25.20
2022-07-31T12:39:59.360Z,25.20
2022-07-31T12:42:30.763Z,25.10
2022-07-31T12:45:18.095Z,25.10
2022-07-31T12:47:52.367Z,25.10
2022-07-31T12:50:21.646Z,25.20
2022-07-31T12:52:51.098Z,25.30
2022-07-31T12:55:19.555Z,25.20
2022-07-31T12:57:52.196Z,25.30
2022-07-31T13:00:23.099Z,25.40
2022-07-31T13:02:51.849Z,25.60
2022-07-31T13:05:20.158Z,25.80
2022-07-31T13:07:48.443Z,26.20
2022-07-31T13:10:21.157Z,26.40
2022-07-31T13:12:51.402Z,26.70
2022-07-31T13:15:22.699Z,27.10
2022-07-31T13:17:51.251Z,27.30
2022-07-31T13:20:19.560Z,27.50
2022-07-31T13:22:47.607Z,27.50
2022-07-31T13:25:17.043Z,27.30
2022-07-31T13:27:45.703Z,27.40
2022-07-31T13:30:15.020Z,27.60
2022-07-31T13:32:43.065Z,27.50
2022-07-31T13:35:19.498Z,27.70
2022-07-31T13:37:56.272Z,27.70
2022-07-31T13:40:39.891Z,27.40
2022-07-31T13:43:07.928Z,27.10
2022-07-31T13:45:36.117Z,26.90
2022-07-31T13:48:08.689Z,26.70
2022-07-31T13:50:38.259Z,26.70
2022-07-31T13:53:06.597Z,26.60
2022-07-31T13:55:36.254Z,26.60
2022-07-31T13:58:04.736Z,26.50
2022-07-31T14:00:33.166Z,26.40
2022-07-31T14:03:01.377Z,26.30
2022-07-31T14:05:29.696Z,26.30
2022-07-31T14:08:30.691Z,26.30
2022-07-31T14:10:56.060Z,26.20
2022-07-31T14:13:24.229Z,26.00
2022-07-31T14:15:52.287Z,25.80
2022-07-31T14:18:20.380Z,25.90
2022-07-31T14:20:48.483Z,25.80
2022-07-31T14:23:16.607Z,25.80
2022-07-31T14:25:44.673Z,25.70
2022-07-31T14:28:14.161Z,25.70
2022-07-31T14:30:46.424Z,25.70
2022-07-31T14:33:17.718Z,25.70
2022-07-31T14:35:45.912Z,25.60
2022-07-31T14:38:22.751Z,25.50
2022-07-31T14:40:55.948Z,25.40
2022-07-31T14:43:27.795Z,25.40
2022-07-31T14:45:55.820Z,25.40
2022-07-31T14:48:23.887Z,25.30
2022-07-31T14:50:51.933Z,25.20
2022-07-31T14:53:19.945Z,25.10
2022-07-31T14:55:48.039Z,25.00
2022-07-31T14:58:16.140Z,25.00
2022-07-31T15:00:45.942Z,24.90
2022-07-31T15:03:14.042Z,24.80
2022-07-31T15:06:41.880Z,24.70
2022-07-31T15:08:30.351Z,24.70
2022-07-31T15:10:58.396Z,24.60
2022-07-31T15:13:26.421Z,24.60
2022-07-31T15:15:55.933Z,24.60
2022-07-31T15:18:25.178Z,24.60
2022-07-31T15:20:54.057Z,24.60
2022-07-31T15:23:22.193Z,24.50
2022-07-31T15:25:50.290Z,24.50
2022-07-31T15:28:18.421Z,24.40
2022-07-31T15:30:46.583Z,24.40
2022-07-31T15:33:16.074Z,24.30
2022-07-31T15:35:44.139Z,24.30
2022-07-31T15:38:12.239Z,24.30
2022-07-31T15:40:40.345Z,24.30
2022-07-31T15:43:08.586Z,24.30
2022-07-31T15:45:36.648Z,24.30
2022-07-31T15:48:09.808Z,24.40
2022-07-31T15:50:39.467Z,24.30
2022-07-31T15:53:07.571Z,24.40
2022-07-31T15:55:35.607Z,24.50
2022-07-31T15:58:03.639Z,24.30
2022-07-31T16:00:31.713Z,24.30
2022-07-31T16:02:59.935Z,24.20
2022-07-31T16:05:36.098Z,24.10
2022-07-31T16:08:31.637Z,24.10
2022-07-31T16:10:55.833Z,24.10
2022-07-31T16:13:24.545Z,24.00
2022-07-31T16:15:52.657Z,24.10
2022-07-31T16:18:21.096Z,24.00
2022-07-31T16:20:49.251Z,24.10
2022-07-31T16:23:18.665Z,24.10
2022-07-31T16:25:46.733Z,24.10
2022-07-31T16:28:15.076Z,24.10
2022-07-31T16:30:43.812Z,24.20
2022-07-31T16:33:14.357Z,24.20
2022-07-31T16:35:42.406Z,24.10
2022-07-31T16:38:10.452Z,24.10
2022-07-31T16:40:39.918Z,24.10
2022-07-31T16:43:48.711Z,24.10
2022-07-31T16:45:57.607Z,24.10
2022-07-31T16:48:25.930Z,24.10
2022-07-31T16:50:54.944Z,24.00
2022-07-31T16:54:10.936Z,23.90
2022-07-31T16:56:13.449Z,23.80
2022-07-31T16:58:41.630Z,23.70
2022-07-31T17:01:58.573Z,23.70
2022-07-31T17:04:01.259Z,23.60
2022-07-31T17:06:34.622Z,23.50
2022-07-31T17:09:17.237Z,23.50
2022-07-31T17:11:48.920Z,23.50
2022-07-31T17:14:18.002Z,23.50
2022-07-31T17:16:49.525Z,23.50
2022-07-31T17:19:42.389Z,23.50
2022-07-31T17:22:07.913Z,23.40
2022-07-31T17:24:37.361Z,23.50
2022-07-31T17:27:08.731Z,23.50
2022-07-31T17:29:37.394Z,23.50
2022-07-31T17:32:06.326Z,23.50
2022-07-31T17:34:35.485Z,23.40
2022-07-31T17:37:04.386Z,23.40
2022-07-31T17:39:32.736Z,23.40
2022-07-31T17:42:00.952Z,23.40
2022-07-31T17:44:37.798Z,23.40
2022-07-31T17:47:14.266Z,23.40
2022-07-31T17:49:42.761Z,23.40
2022-07-31T17:52:15.467Z,23.20
2022-07-31T17:54:51.572Z,23.20
2022-07-31T17:57:28.356Z,23.10
2022-07-31T17:59:59.634Z,23.10
2022-07-31T18:02:29.456Z,23.10
2022-07-31T18:04:57.729Z,23.00
2022-07-31T18:07:26.248Z,23.00
2022-07-31T18:09:56.237Z,23.10
2022-07-31T18:12:25.611Z,23.10
2022-07-31T18:14:54.114Z,23.00
2022-07-31T18:17:23.633Z,23.00
2022-07-31T18:19:51.789Z,23.10
2022-07-31T18:22:19.851Z,23.00
2022-07-31T18:24:47.977Z,23.00
2022-07-31T18:27:16.086Z,23.00
2022-07-31T18:29:55.713Z,23.00
2022-07-31T18:32:26.113Z,23.00
2022-07-31T18:34:54.297Z,23.10
2022-07-31T18:37:22.347Z,23.00
2022-07-31T18:39:50.445Z,23.10
2022-07-31T18:42:18.681Z,23.00
2022-07-31T18:44:46.828Z,23.00
2022-07-31T18:47:19.185Z,23.00
2022-07-31T18:51:02.169Z,22.90
2022-07-31T18:52:37.564Z,22.90
2022-07-31T18:55:06.268Z,22.80
2022-07-31T18:57:34.416Z,22.80
2022-07-31T19:00:02.568Z,22.90
2022-07-31T19:02:30.844Z,22.90
2022-07-31T19:05:00.387Z,22.90
2022-07-31T19:07:29.914Z,22.90
2022-07-31T19:10:08.948Z,22.80
2022-07-31T19:12:37.460Z,22.80
2022-07-31T19:15:06.640Z,22.70
2022-07-31T19:17:44.171Z,22.70
2022-07-31T19:20:41.355Z,22.70
2022-07-31T19:23:12.550Z,22.60
2022-07-31T19:26:03.388Z,22.60
2022-07-31T19:28:31.703Z,22.60
2022-07-31T19:30:59.947Z,22.50
2022-07-31T19:33:28.061Z,22.60
2022-07-31T19:36:01.796Z,22.50
2022-07-31T19:38:31.053Z,22.50
2022-07-31T19:41:00.151Z,22.40
2022-07-31T19:43:28.868Z,22.40
2022-07-31T19:46:10.393Z,22.40
2022-07-31T19:48:41.563Z,22.40
2022-07-31T19:51:11.680Z,22.30
2022-07-31T19:53:39.979Z,22.30
2022-07-31T19:56:08.629Z,22.30
2022-07-31T19:58:37.416Z,22.30
2022-07-31T20:01:05.936Z,22.30
2022-07-31T20:03:34.471Z,22.30
2022-07-31T20:06:03.786Z,22.30
2022-07-31T20:08:33.993Z,22.30
2022-07-31T20:11:04.436Z,22.30
2022-07-31T20:13:33.531Z,22.30
2022-07-31T20:16:02.379Z,22.20
2022-07-31T20:18:30.848Z,22.20
2022-07-31T20:21:02.664Z,22.10
2022-07-31T20:23:36.286Z,22.10
2022-07-31T20:26:05.008Z,22.10
2022-07-31T20:28:35.248Z,22.10
2022-07-31T20:31:04.527Z,22.10
2022-07-31T20:33:33.207Z,22.00
2022-07-31T20:36:01.304Z,21.90
2022-07-31T20:38:29.495Z,21.90
2022-07-31T20:40:59.016Z,21.90
2022-07-31T20:43:28.620Z,21.90
2022-07-31T20:45:58.556Z,21.90
2022-07-31T20:48:31.635Z,21.90
2022-07-31T20:51:00.519Z,21.80
2022-07-31T20:53:29.067Z,21.80
2022-07-31T20:55:59.069Z,21.80
2022-07-31T20:58:28.516Z,21.80
2022-07-31T21:00:56.941Z,21.80
2022-07-31T21:03:25.083Z,21.70
2022-07-31T21:05:53.128Z,21.70
2022-07-31T21:08:22.834Z,21.60
2022-07-31T21:10:51.187Z,21.60
2022-07-31T21:13:20.757Z,21.60
2022-07-31T21:15:51.480Z,21.60
2022-07-31T21:18:21.234Z,21.70
2022-07-31T21:20:53.654Z,21.60
2022-07-31T21:23:23.055Z,21.60
2022-07-31T21:25:52.753Z,21.60
2022-07-31T21:28:23.283Z,21.60
2022-07-31T21:30:53.618Z,21.60
2022-07-31T21:33:22.262Z,21.50
2022-07-31T21:35:50.939Z,21.50
2022-07-31T21:38:19.566Z,21.40
2022-07-31T21:40:48.769Z,21.40
2022-07-31T21:43:22.046Z,21.40
2022-07-31T21:45:57.587Z,21.40
2022-07-31T21:48:32.393Z,21.40
2022-07-31T21:51:01.241Z,21.40
2022-07-31T21:53:29.386Z,21.40
2022-07-31T21:55:59.499Z,21.40
2022-07-31T21:58:27.504Z,21.30
2022-07-31T22:00:56.974Z,21.40
2022-07-31T22:03:25.706Z,21.40
2022-07-31T22:06:11.100Z,21.50
2022-07-31T22:08:42.379Z,21.30
2022-07-31T22:11:10.516Z,21.30
2022-07-31T22:13:38.754Z,21.30
2022-07-31T22:16:08.331Z,21.40
2022-07-31T22:18:37.049Z,21.30
2022-07-31T22:21:09.920Z,21.20
2022-07-31T22:23:38.558Z,21.30
2022-07-31T22:26:07.388Z,21.20
2022-07-31T22:28:36.195Z,21.20
2022-07-31T22:31:04.582Z,21.10
2022-07-31T22:33:34.415Z,21.00
2022-07-31T22:36:07.094Z,21.00
2022-07-31T22:38:39.372Z,21.00
2022-07-31T22:41:14.920Z,20.90
2022-07-31T22:44:10.669Z,20.90
2022-07-31T22:46:32.536Z,20.90
2022-07-31T22:49:03.494Z,20.90
2022-07-31T22:51:35.444Z,20.90
2022-07-31T22:54:06.600Z,20.90
2022-07-31T22:56:34.769Z,20.90
2022-07-31T22:59:02.901Z,20.80
2022-07-31T23:01:31.069Z,20.90
2022-07-31T23:03:59.082Z,20.80
2022-07-31T23:06:32.341Z,20.80
2022-07-31T23:09:01.587Z,20.90
2022-07-31T23:11:30.094Z,20.80
2022-07-31T23:13:58.260Z,20.80
2022-07-31T23:16:27.257Z,20.80
2022-07-31T23:18:55.417Z,20.70
2022-07-31T23:21:24.185Z,20.70
2022-07-31T23:23:54.082Z,20.70
2022-07-31T23:26:26.215Z,20.60
2022-07-31T23:28:55.408Z,20.60
2022-07-31T23:31:24.204Z,20.50
2022-07-31T23:33:53.041Z,20.50
2022-07-31T23:36:21.565Z,20.50
2022-07-31T23:38:49.830Z,20.40
2022-07-31T23:41:39.910Z,20.40
2022-07-31T23:44:10.610Z,20.40
2022-07-31T23:46:40.229Z,20.40
2022-07-31T23:49:09.233Z,20.40
2022-07-31T23:51:37.381Z,20.30
2022-07-31T23:54:06.192Z,20.30
2022-07-31T23:56:35.720Z,20.30
2022-07-31T23:59:03.794Z,20.30
